Time;durP1;ratioP1;P1;durP2;ratioP2;P2;SDS_P1;SDS_P2;PMS_P1;PMS_P2;Temp;Humidity;BMP_temperature;BMP_pressure;BME280_temperature;BME280_humidity;BME280_pressure;Samples;Min_cycle;Max_cycle;Signal;HPM_P1;HPM_P2
2022/01/19 00:02:03;;;;;;;2.15;1.15;;;;;;;-7.53;68.15;99393.31;5070527;28;20453;-61
2022/01/19 00:04:30;;;;;;;8.38;2.03;;;;;;;-7.51;69.07;99385.00;5063843;28;20426;-63
2022/01/19 00:06:57;;;;;;;14.68;1.85;;;;;;;-7.45;68.47;99389.50;5068046;28;20482;-60
2022/01/19 00:09:26;;;;;;;3.95;1.95;;;;;;;-7.37;68.92;99387.38;5064241;28;20076;-65
2022/01/19 00:11:53;;;;;;;3.42;1.20;;;;;;;-7.34;69.28;99383.41;5069879;28;20063;-63
2022/01/19 00:14:19;;;;;;;1.95;1.30;;;;;;;-7.42;69.29;99371.00;5063622;28;20072;-62
2022/01/19 00:16:46;;;;;;;3.65;1.75;;;;;;;-7.48;69.65;99377.28;5060438;28;20056;-66
2022/01/19 00:19:13;;;;;;;5.78;1.90;;;;;;;-7.46;69.07;99375.19;5065127;28;20059;-62
2022/01/19 00:21:40;;;;;;;3.67;1.73;;;;;;;-7.43;68.72;99363.13;5067746;28;20055;-64
2022/01/19 00:24:07;;;;;;;2.00;1.38;;;;;;;-7.41;69.69;99361.03;5061466;28;20079;-63
2022/01/19 00:26:34;;;;;;;2.70;1.58;;;;;;;-7.42;69.41;99362.91;5060134;28;20499;-64
2022/01/19 00:29:01;;;;;;;2.28;1.52;;;;;;;-7.36;68.71;99367.41;5066777;28;20530;-62
2022/01/19 00:31:28;;;;;;;6.25;1.52;;;;;;;-7.29;68.78;99380.88;5066031;28;20044;-62
2022/01/19 00:33:55;;;;;;;4.47;1.77;;;;;;;-7.25;69.36;99377.50;5069637;28;20408;-64
2022/01/19 00:36:22;;;;;;;4.20;2.08;;;;;;;-7.32;68.57;99368.59;5059456;28;20045;-61
2022/01/19 00:38:49;;;;;;;4.75;1.80;;;;;;;-7.36;69.31;99367.41;5059853;28;20403;-63
2022/01/19 00:41:16;;;;;;;3.72;2.03;;;;;;;-7.35;69.37;99366.34;5063405;28;20058;-62
2022/01/19 00:43:43;;;;;;;6.28;1.95;;;;;;;-7.35;69.19;99374.44;5067128;28;20041;-61
2022/01/19 00:46:11;;;;;;;5.93;1.60;;;;;;;-7.28;69.23;99366.28;5064461;28;20048;-63
2022/01/19 00:48:40;;;;;;;9.68;1.75;;;;;;;-7.23;68.29;99374.56;5063138;28;20055;-62
2022/01/19 00:51:07;;;;;;;9.00;1.80;;;;;;;-7.25;68.98;99366.69;5064465;28;20581;-62
2022/01/19 00:53:34;;;;;;;7.28;2.00;;;;;;;-7.19;69.53;99381.16;5065880;28;20048;-62
2022/01/19 00:56:01;;;;;;;4.03;1.90;;;;;;;-7.20;69.47;99374.94;5062346;28;20430;-62
2022/01/19 00:58:28;;;;;;;3.42;1.63;;;;;;;-7.18;69.22;99367.44;5059449;28;20064;-62
2022/01/19 01:00:55;;;;;;;4.13;2.00;;;;;;;-7.23;69.57;99361.88;5065785;28;20099;-62
2022/01/19 01:03:22;;;;;;;6.32;2.08;;;;;;;-7.25;69.33;99366.69;5066916;28;20064;-63
2022/01/19 01:05:49;;;;;;;2.95;1.85;;;;;;;-7.24;69.76;99367.50;5060472;28;20059;-62
2022/01/19 01:08:16;;;;;;;4.07;1.83;;;;;;;-7.22;69.69;99362.69;5059899;28;20040;-62
2022/01/19 01:10:43;;;;;;;8.88;2.25;;;;;;;-7.20;69.25;99364.13;5067251;28;20056;-61
2022/01/19 01:18:27;;;;;;;8.73;1.88;;;;;;;-7.22;69.56;99360.84;5058988;28;20507;-60
2022/01/19 01:20:57;;;;;;;1.10;1.00;;;;;;;-7.23;69.15;99358.34;5066535;28;20040;-64
2022/01/19 01:23:27;;;;;;;7.95;1.83;;;;;;;-7.35;69.14;99366.34;5066018;28;20048;-64
2022/01/19 01:25:55;;;;;;;3.00;1.77;;;;;;;-7.34;69.38;99362.63;5066002;28;20057;-63
2022/01/19 01:28:22;;;;;;;3.65;1.92;;;;;;;-7.29;68.94;99370.06;5066511;28;20386;-62
2022/01/19 01:30:50;;;;;;;3.95;1.83;;;;;;;-7.30;68.65;99369.22;5058291;28;20052;-63
2022/01/19 01:33:18;;;;;;;3.28;1.63;;;;;;;-7.36;68.98;99367.41;5059827;28;20076;-63
2022/01/19 01:35:45;;;;;;;3.13;1.73;;;;;;;-7.35;68.93;99369.06;5071038;28;20519;-63
2022/01/19 01:38:12;;;;;;;4.95;2.10;;;;;;;-7.36;69.30;99370.13;5060768;28;20099;-63
2022/01/19 01:40:59;;;;;;;2.15;1.20;;;;;;;-7.32;68.77;99367.81;5060391;28;20048;-63
2022/01/19 01:43:26;;;;;;;2.75;1.73;;;;;;;-7.35;69.25;99366.34;5058472;28;20424;-62
2022/01/19 01:46:01;;;;;;;4.00;1.73;;;;;;;-7.33;69.86;99369.66;5066140;28;20586;-64
2022/01/19 01:48:28;;;;;;;3.10;1.60;;;;;;;-7.28;69.49;99366.28;5052310;28;20087;-60
2022/01/19 01:53:40;;;;;;;4.25;1.38;;;;;;;-7.25;69.06;99376.66;5065946;28;20091;-57
2022/01/19 01:56:10;;;;;;;2.60;1.73;;;;;;;-7.21;68.48;99373.28;5060853;28;20056;-62
2022/01/19 01:58:40;;;;;;;7.22;1.58;;;;;;;-7.25;69.17;99365.84;5057077;28;20052;-59
2022/01/19 02:01:08;;;;;;;2.67;1.33;;;;;;;-7.23;69.57;99355.66;5064225;28;20052;-59
2022/01/19 02:03:40;;;;;;;3.20;1.88;;;;;;;-7.19;69.63;99348.75;5065784;28;20064;-63
2022/01/19 02:09:01;;;;;;;2.92;1.77;;;;;;;-7.14;69.52;99370.53;5058351;28;20462;-61
2022/01/19 02:21:37;;;;;;;4.70;1.80;;;;;;;-7.15;68.77;99372.41;5064483;28;20136;-63
2022/01/19 02:22:29;;;;;;;3.47;1.75;;;;;;;-7.17;69.01;99368.28;5058071;28;20143;-62
2022/01/19 02:24:56;;;;;;;1.25;1.05;;;;;;;-7.18;69.22;99382.81;5060281;28;20442;-59
2022/01/19 02:41:26;;;;;;;5.72;1.75;;;;;;;-7.18;68.97;99405.25;5062111;28;20140;-62
2022/01/19 02:43:56;;;;;;;2.58;1.58;;;;;;;-7.20;68.68;99401.94;5057517;28;20131;-61
2022/01/19 02:49:16;;;;;;;2.63;1.25;;;;;;;-7.25;68.04;99398.28;5064840;28;20068;-62
2022/01/19 02:51:49;;;;;;;3.40;1.20;;;;;;;-7.23;68.58;99412.41;5064081;28;20052;-62
2022/01/19 02:54:21;;;;;;;1.17;0.98;;;;;;;-7.25;68.77;99407.22;5058232;28;20052;-63
2022/01/19 02:56:58;;;;;;;3.33;1.77;;;;;;;-7.30;68.39;99404.34;5058839;28;20127;-59
2022/01/19 02:59:38;;;;;;;3.78;1.08;;;;;;;-7.33;69.42;99409.34;5058584;28;20083;-62
2022/01/19 03:08:41;;;;;;;4.03;1.27;;;;;;;-7.34;68.68;99408.53;5060878;28;20088;-64
2022/01/19 03:10:40;;;;;;;1.92;1.15;;;;;;;-7.36;68.94;99409.78;5057225;28;20127;-62
2022/01/19 03:13:07;;;;;;;3.55;1.27;;;;;;;-7.36;68.64;99407.94;5062159;28;20152;-65
2022/01/19 03:15:34;;;;;;;3.88;1.45;;;;;;;-7.38;69.33;99403.81;5064960;28;20407;-65
2022/01/19 03:18:01;;;;;;;1.75;1.02;;;;;;;-7.39;68.29;99402.97;5060435;28;20127;-62
2022/01/19 03:20:29;;;;;;;4.47;1.27;;;;;;;-7.38;68.98;99409.22;5057185;28;20462;-62
2022/01/19 03:23:17;;;;;;;2.88;1.20;;;;;;;-7.43;68.56;99396.38;5063685;28;20126;-66
2022/01/19 03:25:44;;;;;;;5.15;1.83;;;;;;;-7.40;68.92;99393.22;5064600;28;20075;-65
2022/01/19 03:28:11;;;;;;;1.75;1.17;;;;;;;-7.36;68.84;99390.88;5061171;28;20601;-63
2022/01/19 03:30:38;;;;;;;1.77;1.00;;;;;;;-7.34;69.00;99397.75;5055577;28;20613;-62
2022/01/19 03:33:05;;;;;;;2.60;1.40;;;;;;;-7.32;68.30;99392.91;5063010;28;20590;-64
2022/01/19 03:35:32;;;;;;;2.50;1.27;;;;;;;-7.32;69.29;99394.81;5065436;28;20488;-65
2022/01/19 03:37:59;;;;;;;1.95;1.25;;;;;;;-7.42;68.65;99381.81;5064083;28;20045;-62
2022/01/19 03:40:26;;;;;;;7.25;3.00;;;;;;;-7.48;68.93;99380.00;5064480;28;20052;-63
2022/01/19 03:42:53;;;;;;;5.55;3.38;;;;;;;-7.48;68.30;99393.50;5058010;28;20059;-66
2022/01/19 03:45:20;;;;;;;2.67;1.58;;;;;;;-7.48;68.97;99384.56;5057931;28;20073;-66
2022/01/19 03:48:05;;;;;;;2.28;1.20;;;;;;;-7.53;68.90;99390.63;5068515;28;20499;-65
2022/01/19 03:50:36;;;;;;;2.30;1.15;;;;;;;-7.57;69.34;99375.06;5056680;28;20053;-65
2022/01/19 03:53:03;;;;;;;3.17;1.92;;;;;;;-7.58;69.18;99376.97;5063644;28;20136;-63
2022/01/19 03:55:30;;;;;;;1.77;1.17;;;;;;;-7.64;69.38;99378.66;5064581;28;20131;-62
2022/01/19 03:57:57;;;;;;;6.18;1.40;;;;;;;-7.66;70.01;99379.94;5058140;28;20048;-61
2022/01/19 04:00:24;;;;;;;1.85;1.08;;;;;;;-7.66;69.33;99386.19;5057602;28;20052;-63
2022/01/19 04:02:51;;;;;;;2.65;1.30;;;;;;;-7.70;69.16;99397.63;5064947;28;20045;-62
2022/01/19 04:05:24;;;;;;;8.70;1.60;;;;;;;-7.73;69.14;99390.78;5063096;28;20114;-65
2022/01/19 04:07:51;;;;;;;3.78;1.38;;;;;;;-7.67;69.09;99400.69;5057237;28;20048;-64
2022/01/19 04:10:18;;;;;;;6.28;1.85;;;;;;;-7.55;69.78;99406.25;5059066;28;20535;-66
2022/01/19 04:12:53;;;;;;;2.67;1.48;;;;;;;-7.54;70.06;99405.19;5067789;28;20049;-63
2022/01/19 04:15:20;;;;;;;1.40;1.15;;;;;;;-7.52;69.68;99405.78;5066918;28;20499;-63
2022/01/19 04:17:54;;;;;;;4.60;1.85;;;;;;;-7.49;69.60;99408.06;5060322;28;20055;-60
2022/01/19 04:20:25;;;;;;;4.45;1.88;;;;;;;-7.53;69.09;99412.22;5062980;28;20444;-62
2022/01/19 04:22:53;;;;;;;3.95;2.67;;;;;;;-7.61;69.59;99417.91;5067701;28;20047;-63
2022/01/19 04:25:20;;;;;;;3.75;1.88;;;;;;;-7.82;69.28;99402.91;5065308;28;20048;-63
2022/01/19 04:27:47;;;;;;;10.23;2.00;;;;;;;-7.82;70.55;99407.44;5060081;28;20083;-61
2022/01/19 04:30:15;;;;;;;4.97;1.40;;;;;;;-7.79;69.31;99401.63;5063731;28;20491;-63
2022/01/19 04:35:30;;;;;;;4.28;1.40;;;;;;;-7.82;69.12;99424.47;5066917;28;20044;-61
2022/01/19 04:46:25;;;;;;;5.88;2.10;;;;;;;-7.57;69.21;99438.03;5067464;28;20045;-60
2022/01/19 05:03:14;;;;;;;5.75;1.55;;;;;;;-7.39;68.90;99413.78;5066525;28;20064;-59
2022/01/19 05:05:52;;;;;;;3.53;1.40;;;;;;;-7.38;69.78;99415.41;5066640;28;20086;-64
2022/01/19 05:13:50;;;;;;;10.73;2.08;;;;;;;-7.34;68.94;99405.00;5063244;28;20059;-61
2022/01/19 05:16:21;;;;;;;13.98;2.63;;;;;;;-7.38;69.07;99399.22;5066990;28;20104;-60
2022/01/19 05:18:50;;;;;;;3.83;2.13;;;;;;;-7.39;70.09;99404.84;5065194;28;20079;-61
2022/01/19 05:21:17;;;;;;;4.70;1.67;;;;;;;-7.46;69.85;99395.97;5059134;28;20127;-64
2022/01/19 05:23:44;;;;;;;2.72;1.70;;;;;;;-7.52;69.37;99397.69;5071672;28;20106;-63
2022/01/19 05:26:11;;;;;;;3.97;2.10;;;;;;;-7.57;69.89;99391.28;5059081;28;20048;-61
2022/01/19 05:28:38;;;;;;;2.17;1.23;;;;;;;-7.61;69.45;99394.41;5063049;28;20055;-61
2022/01/19 05:31:06;;;;;;;5.25;2.38;;;;;;;-7.70;70.03;99386.84;5066170;28;20049;-60
2022/01/19 05:33:33;;;;;;;3.80;1.92;;;;;;;-7.72;69.31;99378.94;5062694;28;20052;-62
2022/01/19 05:36:01;;;;;;;2.60;1.50;;;;;;;-7.79;69.76;99380.03;5058875;28;20080;-62
2022/01/19 05:38:28;;;;;;;5.45;1.80;;;;;;;-7.83;70.69;99378.81;5064510;28;20072;-60
2022/01/19 05:40:55;;;;;;;5.22;1.98;;;;;;;-7.88;70.50;99386.72;5066261;28;20060;-61
2022/01/19 05:43:22;;;;;;;6.50;2.03;;;;;;;-7.87;69.56;99372.22;5060795;28;20141;-61
2022/01/19 05:45:49;;;;;;;4.43;1.98;;;;;;;-7.82;69.57;99381.31;5058565;28;20056;-60
2022/01/19 05:48:16;;;;;;;4.10;2.42;;;;;;;-7.77;69.40;99367.97;5066291;28;20136;-60
2022/01/19 05:50:43;;;;;;;3.47;1.45;;;;;;;-7.76;69.46;99390.38;5073160;28;20414;-62
2022/01/19 05:53:10;;;;;;;4.38;1.98;;;;;;;-7.78;69.57;99387.09;5057847;28;20051;-62
2022/01/19 05:55:37;;;;;;;9.57;2.22;;;;;;;-7.76;69.79;99390.38;5068690;28;20051;-63
2022/01/19 05:58:04;;;;;;;4.80;2.55;;;;;;;-7.73;70.66;99382.69;5058100;28;20044;-63
2022/01/19 06:00:31;;;;;;;5.95;2.58;;;;;;;-7.67;69.75;99383.69;5061171;28;20479;-62
2022/01/19 06:02:58;;;;;;;2.90;1.70;;;;;;;-7.61;69.84;99390.91;5065497;28;20049;-62
2022/01/19 06:05:25;;;;;;;5.72;2.20;;;;;;;-7.55;70.46;99384.63;5062450;28;20384;-63
2022/01/19 06:08:09;;;;;;;5.32;2.00;;;;;;;-7.48;69.07;99393.50;5057917;28;20301;-63
2022/01/19 06:10:42;;;;;;;6.32;2.33;;;;;;;-7.44;69.36;99389.28;5060481;28;20147;-62
2022/01/19 06:13:11;;;;;;;3.28;1.83;;;;;;;-7.42;68.97;99386.38;5057640;28;20052;-63
2022/01/19 06:15:38;;;;;;;3.17;1.63;;;;;;;-7.41;69.98;99380.75;5060363;28;20044;-62
2022/01/19 06:18:05;;;;;;;4.70;2.25;;;;;;;-7.48;70.00;99374.59;5065202;28;20056;-63
2022/01/19 06:20:32;;;;;;;7.25;2.05;;;;;;;-7.44;69.79;99378.50;5062845;28;20086;-63
2022/01/19 06:22:58;;;;;;;2.85;1.52;;;;;;;-7.39;69.60;99392.16;5057641;28;20055;-62
2022/01/19 06:25:25;;;;;;;2.08;1.30;;;;;;;-7.38;69.57;99383.00;5062026;28;20135;-62
2022/01/19 06:27:52;;;;;;;3.90;2.25;;;;;;;-7.40;69.65;99374.31;5065069;28;20095;-62
2022/01/19 06:30:19;;;;;;;4.10;2.25;;;;;;;-7.36;69.25;99380.91;5061335;28;20056;-62
2022/01/19 06:32:46;;;;;;;8.50;1.98;;;;;;;-7.41;68.94;99372.66;5057664;28;20440;-62
2022/01/19 06:35:13;;;;;;;2.83;1.40;;;;;;;-7.41;69.19;99372.66;5065520;28;20057;-62
2022/01/19 06:37:40;;;;;;;4.72;2.25;;;;;;;-7.45;68.86;99379.53;5065536;28;20048;-66
2022/01/19 06:40:09;;;;;;;5.60;1.90;;;;;;;-7.48;70.11;99387.25;5058551;28;20048;-63
2022/01/19 06:42:37;;;;;;;4.15;1.92;;;;;;;-7.49;70.09;99394.56;5057958;28;20106;-63
2022/01/19 06:45:05;;;;;;;3.35;1.90;;;;;;;-7.53;69.01;99390.63;5061931;28;20051;-65
2022/01/19 06:47:32;;;;;;;7.82;2.63;;;;;;;-7.49;68.90;99393.72;5063820;28;20049;-62
2022/01/19 06:49:59;;;;;;;5.47;2.13;;;;;;;-7.48;69.62;99380.00;5065254;28;20044;-63
2022/01/19 06:52:26;;;;;;;5.68;2.38;;;;;;;-7.51;69.78;99383.13;5063941;28;20080;-64
2022/01/19 06:54:53;;;;;;;3.45;1.90;;;;;;;-7.50;69.18;99394.78;5056998;28;20060;-62
2022/01/19 06:57:20;;;;;;;6.50;2.20;;;;;;;-7.51;69.77;99385.84;5060396;28;20076;-62
2022/01/19 06:59:51;;;;;;;3.20;1.70;;;;;;;-7.48;70.33;99376.44;5054219;28;20055;-62
2022/01/19 07:02:18;;;;;;;4.32;2.22;;;;;;;-7.47;69.19;99378.94;5059998;28;20049;-63
2022/01/19 07:04:50;;;;;;;5.75;2.47;;;;;;;-7.43;69.38;99373.94;5058539;28;20056;-60
2022/01/19 07:07:18;;;;;;;4.00;1.88;;;;;;;-7.37;69.59;99383.84;5061447;28;20114;-58
2022/01/19 07:09:46;;;;;;;1.73;1.13;;;;;;;-7.33;69.82;99382.34;5061379;28;20131;-58
2022/01/19 07:12:14;;;;;;;6.80;1.80;;;;;;;-7.43;68.91;99382.88;5065192;28;20052;-59
2022/01/19 07:14:42;;;;;;;4.20;1.30;;;;;;;-7.44;70.17;99383.88;5054860;28;20536;-57
2022/01/19 07:17:08;;;;;;;4.50;1.95;;;;;;;-7.37;69.99;99373.88;5068400;28;20094;-60
2022/01/19 07:19:36;;;;;;;6.43;2.50;;;;;;;-7.30;69.42;99377.31;5067283;28;20167;-58
2022/01/19 07:22:03;;;;;;;3.05;2.10;;;;;;;-7.26;69.25;99375.81;5064359;28;20049;-59
2022/01/19 07:24:30;;;;;;;5.43;2.53;;;;;;;-7.12;69.11;99366.53;5062511;28;20045;-61
2022/01/19 07:26:57;;;;;;;3.75;1.88;;;;;;;-6.85;68.20;99361.66;5061236;28;20056;-60
2022/01/19 07:29:24;;;;;;;5.13;2.10;;;;;;;-6.79;67.95;99364.28;5067420;28;20054;-60
2022/01/19 07:31:51;;;;;;;5.88;2.22;;;;;;;-6.85;68.06;99358.97;5059108;28;20040;-60
2022/01/19 07:34:18;;;;;;;11.10;3.15;;;;;;;-6.86;68.70;99350.03;5060347;28;20148;-61
2022/01/19 07:36:45;;;;;;;7.43;2.33;;;;;;;-6.82;68.85;99345.81;5064567;28;20086;-60
2022/01/19 07:39:12;;;;;;;6.82;2.30;;;;;;;-6.74;68.30;99342.81;5062890;28;20051;-61
2022/01/19 07:41:38;;;;;;;5.63;2.55;;;;;;;-6.53;68.38;99349.63;5055108;28;20044;-60
2022/01/19 07:44:06;;;;;;;2.22;1.33;;;;;;;-6.43;68.24;99348.03;5060098;28;20462;-59
2022/01/19 07:46:33;;;;;;;5.75;2.90;;;;;;;-6.57;68.81;99332.22;5065535;28;20609;-60
2022/01/19 07:49:00;;;;;;;4.10;2.50;;;;;;;-6.53;68.38;99328.81;5056695;28;20045;-57
2022/01/19 07:51:27;;;;;;;4.65;2.75;;;;;;;-6.50;68.23;99328.34;5067049;28;20055;-58
2022/01/19 07:53:54;;;;;;;12.63;3.63;;;;;;;-6.48;67.76;99326.22;5065266;28;20067;-61
2022/01/19 07:56:21;;;;;;;8.13;3.03;;;;;;;-6.34;67.83;99326.91;5066702;28;20144;-60
2022/01/19 07:58:48;;;;;;;6.22;3.05;;;;;;;-6.48;67.52;99317.31;5062195;28;20045;-59
2022/01/19 08:01:16;;;;;;;8.25;3.25;;;;;;;-6.34;67.15;99319.59;5066022;28;20072;-60
2022/01/19 08:03:43;;;;;;;7.47;3.38;;;;;;;-5.87;66.12;99305.13;5071177;28;20060;-59
2022/01/19 08:06:10;;;;;;;9.43;3.50;;;;;;;-5.55;65.33;99304.75;5067656;28;20127;-60
2022/01/19 08:08:37;;;;;;;4.85;2.70;;;;;;;-5.09;65.08;99304.75;5063503;28;20044;-62
2022/01/19 08:11:04;;;;;;;7.55;3.28;;;;;;;-5.14;65.32;99301.91;5071465;28;20064;-61
2022/01/19 08:13:31;;;;;;;5.03;2.70;;;;;;;-5.27;65.43;99297.56;5064052;28;20052;-61
2022/01/19 08:15:58;;;;;;;8.77;3.80;;;;;;;-4.94;64.75;99288.81;5061998;28;20422;-60
2022/01/19 08:18:25;;;;;;;9.45;3.60;;;;;;;-4.96;64.42;99299.06;5059586;28;20404;-60
2022/01/19 08:20:52;;;;;;;8.15;4.10;;;;;;;-4.48;63.60;99291.34;5062362;28;20049;-58
2022/01/19 08:23:19;;;;;;;6.13;3.63;;;;;;;-4.07;63.44;99282.91;5068456;28;20049;-60
2022/01/19 08:25:46;;;;;;;9.60;3.38;;;;;;;-4.04;64.24;99277.81;5062438;28;20517;-59
2022/01/19 08:28:13;;;;;;;6.88;3.70;;;;;;;-3.77;64.14;99280.69;5068968;28;20098;-60
2022/01/19 08:30:40;;;;;;;9.60;4.07;;;;;;;-3.20;62.86;99287.56;5063231;28;20052;-61
2022/01/19 08:33:07;;;;;;;9.70;3.47;;;;;;;-1.99;60.51;99293.41;5069403;28;20419;-61
2022/01/19 08:35:34;;;;;;;9.95;3.40;;;;;;;-0.86;58.18;99289.34;5063334;28;20482;-61
2022/01/19 08:38:01;;;;;;;6.93;3.50;;;;;;;-0.57;56.99;99287.84;5067345;28;20127;-60
2022/01/19 08:40:29;;;;;;;8.00;3.97;;;;;;;0.13;57.08;99282.59;5069661;28;20052;-59
2022/01/19 08:42:56;;;;;;;10.98;3.58;;;;;;;1.20;55.55;99279.47;5065697;28;20127;-61
2022/01/19 08:45:23;;;;;;;11.23;3.35;;;;;;;1.59;54.25;99281.25;5059134;28;20063;-61
2022/01/19 08:47:51;;;;;;;11.00;3.42;;;;;;;1.51;54.48;99287.31;5061516;28;20051;-60
2022/01/19 08:50:18;;;;;;;9.48;3.33;;;;;;;1.77;54.49;99268.84;5067442;28;20084;-60
2022/01/19 08:52:46;;;;;;;8.20;3.40;;;;;;;1.83;54.01;99262.22;5064779;28;20052;-59
2022/01/19 08:55:14;;;;;;;9.57;3.97;;;;;;;1.59;54.28;99261.25;5070332;28;20052;-60
2022/01/19 08:57:41;;;;;;;7.38;3.63;;;;;;;1.10;55.16;99247.47;5071727;28;20048;-60
2022/01/19 09:00:14;;;;;;;7.97;3.30;;;;;;;1.02;53.71;99249.94;5066815;28;20136;-61
2022/01/19 09:02:41;;;;;;;7.85;3.38;;;;;;;0.59;53.90;99245.13;5054715;28;20055;-60
2022/01/19 09:05:09;;;;;;;8.75;3.65;;;;;;;0.24;54.05;99243.22;5067178;28;20064;-59
2022/01/19 09:07:36;;;;;;;8.27;3.33;;;;;;;0.01;54.45;99232.81;5062262;28;20056;-60
2022/01/19 09:10:05;;;;;;;10.95;3.08;;;;;;;-0.08;53.62;99237.16;5066016;28;20075;-60
2022/01/19 09:12:34;;;;;;;8.27;3.50;;;;;;;0.06;53.69;99241.03;5068026;28;20406;-59
2022/01/19 09:15:03;;;;;;;6.28;3.53;;;;;;;0.45;52.26;99238.56;5068257;28;20062;-61
2022/01/19 09:17:30;;;;;;;9.30;3.40;;;;;;;0.48;51.98;99233.38;5062590;28;20095;-58
2022/01/19 09:19:58;;;;;;;6.53;3.10;;;;;;;0.07;52.16;99231.72;5057350;28;20148;-60
2022/01/19 09:22:25;;;;;;;6.80;2.97;;;;;;;-0.46;53.10;99243.09;5061632;28;20539;-59
2022/01/19 09:24:52;;;;;;;6.38;2.90;;;;;;;-1.12;54.55;99236.53;5059407;28;20147;-60
2022/01/19 09:27:21;;;;;;;8.88;3.65;;;;;;;-1.56;55.62;99232.44;5070841;28;20056;-61
2022/01/19 09:29:48;;;;;;;10.82;3.70;;;;;;;-1.68;55.91;99239.16;5067240;28;20071;-59
2022/01/19 09:32:20;;;;;;;15.30;4.78;;;;;;;-1.27;55.31;99241.09;5062661;28;20048;-60
2022/01/19 09:34:54;;;;;;;11.27;3.65;;;;;;;-0.53;53.58;99226.94;5067039;28;20090;-59
2022/01/19 09:37:22;;;;;;;9.43;3.45;;;;;;;-0.46;53.55;99223.97;5059980;28;20465;-60
2022/01/19 09:39:49;;;;;;;11.45;4.07;;;;;;;-0.79;53.77;99218.94;5066221;28;20036;-60
2022/01/19 09:42:16;;;;;;;9.82;4.22;;;;;;;-0.98;54.56;99225.97;5066135;28;20155;-58
2022/01/19 09:44:43;;;;;;;7.38;3.63;;;;;;;-1.18;54.64;99223.13;5055203;28;20579;-59
2022/01/19 09:47:10;;;;;;;15.35;5.07;;;;;;;-1.15;54.83;99222.59;5058044;28;20056;-59
2022/01/19 09:49:37;;;;;;;13.77;4.70;;;;;;;-1.20;55.04;99220.66;5067090;28;20132;-61
2022/01/19 09:52:05;;;;;;;10.32;4.07;;;;;;;-1.42;54.99;99216.44;5058234;28;20050;-60
2022/01/19 09:54:33;;;;;;;9.02;3.10;;;;;;;-1.74;55.12;99226.56;5069808;28;20044;-57
2022/01/19 09:57:00;;;;;;;10.00;4.28;;;;;;;-2.09;55.50;99227.09;5056838;28;20127;-60
2022/01/19 09:59:33;;;;;;;8.05;3.15;;;;;;;-2.32;55.20;99241.84;5062394;28;20051;-58
2022/01/19 10:02:07;;;;;;;9.40;3.38;;;;;;;-2.36;55.72;99248.91;5063623;28;20055;-58
2022/01/19 10:04:41;;;;;;;11.27;3.28;;;;;;;-2.27;55.52;99236.47;5062865;28;20064;-61
2022/01/19 10:07:20;;;;;;;9.05;2.95;;;;;;;-2.45;55.47;99242.28;5064220;28;20495;-60
2022/01/19 10:09:58;;;;;;;9.75;3.22;;;;;;;-2.62;56.16;99244.25;5063467;28;20127;-58
2022/01/19 10:18:16;;;;;;;6.85;2.83;;;;;;;-2.85;56.46;99228.19;5058318;28;20049;-59
2022/01/19 10:20:45;;;;;;;8.52;3.30;;;;;;;-2.96;56.70;99228.31;5055481;28;20435;-58
2022/01/19 10:23:36;;;;;;;11.85;4.18;;;;;;;-2.91;56.51;99222.94;5068346;28;20131;-59
2022/01/19 10:26:10;;;;;;;8.68;3.17;;;;;;;-2.92;56.46;99222.13;5061737;28;20045;-60
2022/01/19 10:29:00;;;;;;;8.73;2.75;;;;;;;-2.90;56.58;99219.94;5060608;28;20045;-58
2022/01/19 10:31:29;;;;;;;12.52;3.38;;;;;;;-2.95;56.65;99210.91;5067411;28;20044;-60
2022/01/19 10:34:14;;;;;;;8.82;2.88;;;;;;;-2.83;56.32;99214.31;5064476;28;20076;-58
2022/01/19 10:36:55;;;;;;;11.98;4.00;;;;;;;-2.72;56.70;99216.91;5066091;28;20068;-59
2022/01/19 10:39:37;;;;;;;46.35;14.10;;;;;;;-2.53;56.31;99201.88;5060290;28;20044;-58
2022/01/19 10:42:06;;;;;;;7.15;2.75;;;;;;;-2.42;56.31;99206.38;5058590;28;20098;-59
2022/01/19 10:44:38;;;;;;;10.40;4.35;;;;;;;-2.39;56.45;99200.41;5063086;28;20128;-59
2022/01/19 10:47:47;;;;;;;8.00;3.50;;;;;;;-2.38;56.63;99187.59;5063022;28;20055;-59
2022/01/19 10:50:18;;;;;;;9.43;3.45;;;;;;;-2.45;56.96;99193.25;5061471;28;20144;-58
2022/01/19 10:52:46;;;;;;;8.88;3.20;;;;;;;-2.51;57.11;99188.84;5069291;28;20139;-59
2022/01/19 10:55:18;;;;;;;7.30;3.03;;;;;;;-2.54;57.44;99192.06;5067123;28;20455;-59
2022/01/19 10:57:48;;;;;;;8.20;3.45;;;;;;;-2.61;57.44;99183.28;5063380;28;20045;-60
2022/01/19 11:00:21;;;;;;;11.35;2.83;;;;;;;-2.65;57.47;99195.75;5066625;28;20070;-60
2022/01/19 11:02:50;;;;;;;7.43;2.80;;;;;;;-2.73;57.98;99188.03;5054791;28;20040;-57
2022/01/19 11:05:41;;;;;;;7.40;3.05;;;;;;;-2.79;57.60;99199.97;5056962;28;20061;-59
2022/01/19 11:08:09;;;;;;;9.52;3.00;;;;;;;-2.92;58.16;99204.97;5066551;28;20102;-60
2022/01/19 11:10:36;;;;;;;6.03;2.83;;;;;;;-3.12;58.30;99197.38;5065001;28;20048;-62
2022/01/19 11:13:06;;;;;;;5.38;2.38;;;;;;;-3.13;58.04;99201.19;5064381;28;20094;-59
2022/01/19 11:15:33;;;;;;;6.20;2.50;;;;;;;-3.12;58.48;99191.94;5066641;28;20404;-58
2022/01/19 11:18:00;;;;;;;8.45;2.88;;;;;;;-3.12;57.98;99189.22;5067326;28;20064;-61
2022/01/19 11:20:28;;;;;;;6.63;2.90;;;;;;;-3.21;58.39;99193.47;5066941;28;20051;-57
2022/01/19 11:23:22;;;;;;;6.10;2.45;;;;;;;-3.22;58.26;99182.84;5065744;28;20055;-58
2022/01/19 11:25:57;;;;;;;8.80;2.40;;;;;;;-3.28;58.10;99176.53;5060879;28;20040;-60
2022/01/19 11:28:26;;;;;;;5.97;2.67;;;;;;;-3.37;58.31;99175.31;5069340;28;20067;-57
2022/01/19 11:30:55;;;;;;;6.05;3.08;;;;;;;-3.43;58.30;99175.50;5068088;28;20249;-61
2022/01/19 11:33:25;;;;;;;5.88;2.67;;;;;;;-3.41;58.31;99167.91;5070659;28;20074;-61
2022/01/19 11:36:01;;;;;;;5.88;2.70;;;;;;;-3.37;58.75;99161.72;5064222;28;20516;-61
2022/01/19 11:38:46;;;;;;;6.82;2.65;;;;;;;-3.42;58.59;99161.66;5067203;28;20527;-61
2022/01/19 11:41:12;;;;;;;8.68;2.70;;;;;;;-3.45;58.65;99159.44;5067612;28;20148;-60
2022/01/19 11:43:49;;;;;;;5.78;2.63;;;;;;;-3.54;58.62;99158.22;5064501;28;20414;-59
2022/01/19 11:46:31;;;;;;;7.45;3.20;;;;;;;-3.57;58.96;99156.00;5063230;28;20078;-59
2022/01/19 11:49:01;;;;;;;8.43;2.80;;;;;;;-3.64;59.50;99155.38;5067514;28;20076;-56
2022/01/19 11:51:39;;;;;;;5.07;2.43;;;;;;;-3.66;59.63;99152.06;5071446;28;20040;-56
2022/01/19 11:54:21;;;;;;;4.05;2.20;;;;;;;-3.69;59.25;99149.84;5061691;28;20048;-60
2022/01/19 11:57:02;;;;;;;4.25;2.00;;;;;;;-3.69;59.92;99149.03;5071525;28;20044;-60
2022/01/19 11:59:36;;;;;;;4.85;2.50;;;;;;;-3.72;59.18;99147.63;5065754;28;20049;-59
2022/01/19 12:02:24;;;;;;;6.75;2.15;;;;;;;-3.83;59.72;99148.56;5069608;28;20533;-59
2022/01/19 12:05:11;;;;;;;6.70;2.25;;;;;;;-3.96;59.88;99149.72;5060799;28;20056;-59
2022/01/19 12:07:52;;;;;;;5.10;2.35;;;;;;;-3.98;60.04;99141.03;5065112;28;20545;-56
2022/01/19 12:10:42;;;;;;;9.95;2.15;;;;;;;-4.00;59.79;99137.72;5062325;28;20110;-57
2022/01/19 12:16:37;;;;;;;5.60;2.20;;;;;;;-4.01;59.48;99135.25;5075807;28;20135;-60
2022/01/19 12:19:07;;;;;;;6.93;2.22;;;;;;;-4.04;59.97;99142.00;5061588;28;20481;-58
2022/01/19 12:21:34;;;;;;;5.70;1.83;;;;;;;-4.13;59.86;99127.22;5065045;28;20053;-59
2022/01/19 12:24:26;;;;;;;4.50;1.80;;;;;;;-4.20;60.20;99133.88;5063187;28;20418;-59
2022/01/19 12:27:01;;;;;;;5.00;1.90;;;;;;;-4.16;60.40;99129.59;5059511;28;20559;-59
2022/01/19 12:29:58;;;;;;;3.17;1.70;;;;;;;-4.16;59.69;99118.72;5063593;28;20125;-60
2022/01/19 12:32:25;;;;;;;6.97;2.50;;;;;;;-4.23;60.25;99118.88;5055545;28;20090;-57
2022/01/19 12:35:27;;;;;;;8.98;2.22;;;;;;;-4.25;59.96;99125.66;5069508;28;20048;-57
2022/01/19 12:37:56;;;;;;;8.52;2.13;;;;;;;-4.33;60.79;99118.75;5031717;28;20088;-58
2022/01/19 12:40:35;;;;;;;5.45;2.20;;;;;;;-4.46;60.64;99129.09;5076400;28;20096;-60
2022/01/19 12:43:28;;;;;;;7.55;2.65;;;;;;;-4.49;60.91;99116.03;5062967;28;20591;-62
2022/01/19 12:45:57;;;;;;;7.40;2.90;;;;;;;-4.49;61.00;99110.59;5053445;28;20061;-58
2022/01/19 12:48:37;;;;;;;6.40;2.60;;;;;;;-4.41;60.83;99102.84;5072474;28;20063;-58
2022/01/19 12:51:05;;;;;;;5.45;2.17;;;;;;;-4.36;60.90;99111.09;5067065;28;20529;-59
2022/01/19 12:53:32;;;;;;;5.97;2.50;;;;;;;-4.33;61.08;99109.75;5065220;28;20049;-60
2022/01/19 12:56:09;;;;;;;7.10;2.30;;;;;;;-4.32;61.32;99111.44;5066853;28;20140;-59
2022/01/19 12:58:39;;;;;;;8.43;2.55;;;;;;;-4.36;60.71;99099.41;5063537;28;20048;-60
2022/01/19 13:01:09;;;;;;;5.72;2.75;;;;;;;-4.44;61.55;99102.56;5064937;28;20056;-60
2022/01/19 13:03:45;;;;;;;10.20;3.45;;;;;;;-4.41;61.08;99091.19;5069064;28;20158;-62
2022/01/19 13:06:15;;;;;;;7.95;3.10;;;;;;;-4.39;61.67;99095.31;5057369;28;20052;-60
2022/01/19 13:08:57;;;;;;;11.23;3.25;;;;;;;-4.44;61.85;99091.69;5065892;28;20045;-61
2022/01/19 13:11:47;;;;;;;11.23;2.78;;;;;;;-4.66;61.85;99088.06;5066146;28;20268;-59